Cherokee — 9HBC7 — position and weather

sailwx.info

Track history (hours):
 
Tides and Currents Weather Stations Pressure Air Temp Water Temp Dewpoint Dewpoint Depression Visibility Wind Speed Wind Dir Waves Ship Positions

Cherokee

Last reported at 2014-Nov-28 12:33 UTC. Time now 2014-Nov-28 13:29 UTC.
Position N 44°36' E 034°48'.

Length 139 m; draft 3.9 m.

Type: Cargo ship. MMSI: 215059000.

Date/timePositionNaut miles runAvg speedWind from/ knotsBaromVisibWave heightAir tempDewpointWater temp
2014-Nov-28 12:33N 44°36' E 034°48'6 6.1
2014-Nov-28 11:33N 44°33' E 034°40'6 6.0
2014-Nov-28 10:33N 44°29' E 034°33'6 6.1
2014-Nov-28 09:33N 44°25' E 034°27'6 6.2
2014-Nov-28 08:33N 44°21' E 034°20'6 6.4
2014-Nov-28 07:33N 44°18' E 034°13'7 6.5
2014-Nov-28 06:33N 44°14' E 034°05'7 6.3
2014-Nov-28 05:31N 44°10' E 033°58'253 6.8
2014-Nov-26 16:27N 41°30' E 029°31'5 5.6
2014-Nov-26 15:33N 41°26' E 029°26'11 5.7
2014-Nov-26 13:33N 41°18' E 029°16'22 5.3
2014-Nov-26 09:30N 41°00' E 028°60'4 4.2
2014-Nov-26 08:33N 40°56' E 028°58'3 1.3
2014-Nov-26 06:33N 40°58' E 028°56'0 0.0
2014-Nov-26 05:27N 40°58' E 028°56'0 0.0
2014-Nov-26 03:29N 40°58' E 028°56'0 0.0
2014-Nov-26 01:26N 40°58' E 028°56'0 0.0
2014-Nov-25 23:32N 40°58' E 028°56'0 0.0
2014-Nov-25 20:26N 40°58' E 028°56'0 0.0
2014-Nov-25 19:32N 40°58' E 028°56'0 0.0
2014-Nov-25 18:20N 40°58' E 028°56'0 0.0
2014-Nov-25 16:32N 40°58' E 028°56'0 0.0
2014-Nov-25 14:20N 40°58' E 028°56'0 0.0
2014-Nov-25 12:26N 40°58' E 028°56'0 0.0
2014-Nov-25 11:15N 40°58' E 028°56'0 0.0
2014-Nov-25 10:33N 40°58' E 028°56'1 0.5
2014-Nov-25 09:33N 40°58' E 028°56'5 5.0
2014-Nov-25 08:30N 40°53' E 028°54'6 6.7
2014-Nov-25 07:32N 40°51' E 028°46'  
2014-Nov-23 00:32N 37°38' E 026°35'  
Track history (hours):
 
Tides and Currents Weather Stations Pressure Air Temp Water Temp Dewpoint Dewpoint Depression Visibility Wind Speed Wind Dir Waves Ship Positions

Cherokee

Last reported at 2014-Nov-28 12:33 UTC. Time now 2014-Nov-28 13:29 UTC.
Position N 44°36' E 034°48'.

Length 139 m; draft 3.9 m.

Type: Cargo ship. MMSI: 215059000.

Date/timePositionNaut miles runAvg speedWind from/ knotsBaromVisibWave heightAir tempDewpointWater temp
2014-Nov-28 12:33N 44°36' E 034°48'6 6.1
2014-Nov-28 11:33N 44°33' E 034°40'6 6.0
2014-Nov-28 10:33N 44°29' E 034°33'6 6.1
2014-Nov-28 09:33N 44°25' E 034°27'6 6.2
2014-Nov-28 08:33N 44°21' E 034°20'6 6.4
2014-Nov-28 07:33N 44°18' E 034°13'7 6.5
2014-Nov-28 06:33N 44°14' E 034°05'7 6.3
2014-Nov-28 05:31N 44°10' E 033°58'253 6.8
2014-Nov-26 16:27N 41°30' E 029°31'5 5.6
2014-Nov-26 15:33N 41°26' E 029°26'11 5.7
2014-Nov-26 13:33N 41°18' E 029°16'22 5.3
2014-Nov-26 09:30N 41°00' E 028°60'4 4.2
2014-Nov-26 08:33N 40°56' E 028°58'3 1.3
2014-Nov-26 06:33N 40°58' E 028°56'0 0.0
2014-Nov-26 05:27N 40°58' E 028°56'0 0.0
2014-Nov-26 03:29N 40°58' E 028°56'0 0.0
2014-Nov-26 01:26N 40°58' E 028°56'0 0.0
2014-Nov-25 23:32N 40°58' E 028°56'0 0.0
2014-Nov-25 20:26N 40°58' E 028°56'0 0.0
2014-Nov-25 19:32N 40°58' E 028°56'0 0.0
2014-Nov-25 18:20N 40°58' E 028°56'0 0.0
2014-Nov-25 16:32N 40°58' E 028°56'0 0.0
2014-Nov-25 14:20N 40°58' E 028°56'0 0.0
2014-Nov-25 12:26N 40°58' E 028°56'0 0.0
2014-Nov-25 11:15N 40°58' E 028°56'0 0.0
2014-Nov-25 10:33N 40°58' E 028°56'1 0.5
2014-Nov-25 09:33N 40°58' E 028°56'5 5.0
2014-Nov-25 08:30N 40°53' E 028°54'6 6.7
2014-Nov-25 07:32N 40°51' E 028°46'  
2014-Nov-23 00:32N 37°38' E 026°35'  

Dump ship's entire track history